sensor_id;sensor_type;location;lat;lon;timestamp;P1;durP1;ratioP1;P2;durP2;ratioP2
61435;SDS011;47304;47.456;19.160;2023-07-13T00:02:15;12.40;;;4.40;;
61435;SDS011;47304;47.456;19.160;2023-07-13T00:04:42;16.00;;;4.20;;
61435;SDS011;47304;47.456;19.160;2023-07-13T00:07:08;11.10;;;4.30;;
61435;SDS011;47304;47.456;19.160;2023-07-13T00:09:35;11.60;;;5.00;;
61435;SDS011;47304;47.456;19.160;2023-07-13T00:12:02;12.00;;;4.60;;
61435;SDS011;47304;47.456;19.160;2023-07-13T00:14:28;10.20;;;4.50;;
61435;SDS011;47304;47.456;19.160;2023-07-13T00:16:55;8.60;;;4.10;;
61435;SDS011;47304;47.456;19.160;2023-07-13T00:19:22;12.80;;;3.90;;
61435;SDS011;47304;47.456;19.160;2023-07-13T00:21:49;14.70;;;4.10;;
61435;SDS011;47304;47.456;19.160;2023-07-13T00:24:16;8.10;;;3.50;;
61435;SDS011;47304;47.456;19.160;2023-07-13T00:26:44;10.00;;;3.80;;
61435;SDS011;47304;47.456;19.160;2023-07-13T00:29:11;9.50;;;3.60;;
61435;SDS011;47304;47.456;19.160;2023-07-13T00:31:39;9.10;;;3.70;;
61435;SDS011;47304;47.456;19.160;2023-07-13T00:34:05;8.00;;;3.70;;
61435;SDS011;47304;47.456;19.160;2023-07-13T00:36:32;8.40;;;3.40;;
61435;SDS011;47304;47.456;19.160;2023-07-13T00:38:58;8.80;;;3.70;;
61435;SDS011;47304;47.456;19.160;2023-07-13T00:41:25;8.90;;;3.50;;
61435;SDS011;47304;47.456;19.160;2023-07-13T00:43:51;8.10;;;3.50;;
61435;SDS011;47304;47.456;19.160;2023-07-13T00:46:28;9.10;;;3.60;;
61435;SDS011;47304;47.456;19.160;2023-07-13T00:49:04;8.70;;;3.30;;
61435;SDS011;47304;47.456;19.160;2023-07-13T00:51:38;7.90;;;3.70;;
61435;SDS011;47304;47.456;19.160;2023-07-13T00:54:11;8.90;;;3.60;;
61435;SDS011;47304;47.456;19.160;2023-07-13T00:56:41;10.20;;;4.30;;
61435;SDS011;47304;47.456;19.160;2023-07-13T00:59:12;7.00;;;3.50;;
61435;SDS011;47304;47.456;19.160;2023-07-13T01:01:41;10.30;;;3.80;;
61435;SDS011;47304;47.456;19.160;2023-07-13T01:04:08;7.90;;;3.50;;
61435;SDS011;47304;47.456;19.160;2023-07-13T01:06:36;8.60;;;4.00;;
61435;SDS011;47304;47.456;19.160;2023-07-13T01:09:04;9.50;;;3.80;;
61435;SDS011;47304;47.456;19.160;2023-07-13T01:11:32;9.00;;;4.00;;
61435;SDS011;47304;47.456;19.160;2023-07-13T01:13:59;9.60;;;3.60;;
61435;SDS011;47304;47.456;19.160;2023-07-13T01:16:27;8.20;;;3.50;;
61435;SDS011;47304;47.456;19.160;2023-07-13T01:18:56;8.80;;;3.80;;
61435;SDS011;47304;47.456;19.160;2023-07-13T01:21:24;9.20;;;3.80;;
61435;SDS011;47304;47.456;19.160;2023-07-13T01:23:51;9.90;;;3.80;;
61435;SDS011;47304;47.456;19.160;2023-07-13T02:19:38;7.70;;;3.50;;
61435;SDS011;47304;47.456;19.160;2023-07-13T02:22:04;8.70;;;4.10;;
61435;SDS011;47304;47.456;19.160;2023-07-13T02:24:31;9.90;;;3.70;;
61435;SDS011;47304;47.456;19.160;2023-07-13T02:26:58;10.10;;;4.10;;
61435;SDS011;47304;47.456;19.160;2023-07-13T02:29:24;9.00;;;4.30;;
61435;SDS011;47304;47.456;19.160;2023-07-13T02:31:51;8.50;;;4.00;;
61435;SDS011;47304;47.456;19.160;2023-07-13T02:34:18;10.90;;;4.50;;
61435;SDS011;47304;47.456;19.160;2023-07-13T02:36:44;8.30;;;4.00;;
61435;SDS011;47304;47.456;19.160;2023-07-13T02:39:11;8.70;;;4.30;;
61435;SDS011;47304;47.456;19.160;2023-07-13T02:41:38;8.80;;;3.90;;
61435;SDS011;47304;47.456;19.160;2023-07-13T02:44:05;10.20;;;4.10;;
61435;SDS011;47304;47.456;19.160;2023-07-13T02:46:33;11.20;;;4.40;;
61435;SDS011;47304;47.456;19.160;2023-07-13T02:49:01;9.70;;;4.10;;
61435;SDS011;47304;47.456;19.160;2023-07-13T02:51:28;9.10;;;4.40;;
61435;SDS011;47304;47.456;19.160;2023-07-13T02:53:55;9.20;;;3.80;;
61435;SDS011;47304;47.456;19.160;2023-07-13T02:56:22;11.50;;;4.70;;
61435;SDS011;47304;47.456;19.160;2023-07-13T02:58:50;8.60;;;4.80;;
61435;SDS011;47304;47.456;19.160;2023-07-13T03:01:17;10.10;;;4.60;;
61435;SDS011;47304;47.456;19.160;2023-07-13T03:03:44;9.90;;;4.50;;
61435;SDS011;47304;47.456;19.160;2023-07-13T03:06:12;9.60;;;4.20;;
61435;SDS011;47304;47.456;19.160;2023-07-13T03:08:40;8.20;;;4.30;;
61435;SDS011;47304;47.456;19.160;2023-07-13T03:11:08;12.40;;;5.10;;
61435;SDS011;47304;47.456;19.160;2023-07-13T03:13:40;9.40;;;4.40;;
61435;SDS011;47304;47.456;19.160;2023-07-13T03:16:08;9.50;;;4.00;;
61435;SDS011;47304;47.456;19.160;2023-07-13T03:18:37;10.50;;;4.10;;
61435;SDS011;47304;47.456;19.160;2023-07-13T03:21:04;7.30;;;3.50;;
61435;SDS011;47304;47.456;19.160;2023-07-13T03:23:32;9.20;;;4.00;;
61435;SDS011;47304;47.456;19.160;2023-07-13T03:28:36;8.70;;;3.60;;
61435;SDS011;47304;47.456;19.160;2023-07-13T03:31:04;8.70;;;4.10;;
61435;SDS011;47304;47.456;19.160;2023-07-13T03:33:33;12.20;;;3.90;;
61435;SDS011;47304;47.456;19.160;2023-07-13T03:36:00;8.20;;;3.70;;
61435;SDS011;47304;47.456;19.160;2023-07-13T03:38:26;9.20;;;3.70;;
61435;SDS011;47304;47.456;19.160;2023-07-13T03:40:53;9.60;;;3.80;;
61435;SDS011;47304;47.456;19.160;2023-07-13T03:43:19;10.60;;;3.80;;
61435;SDS011;47304;47.456;19.160;2023-07-13T03:45:46;9.90;;;4.30;;
61435;SDS011;47304;47.456;19.160;2023-07-13T03:48:13;11.70;;;4.00;;
61435;SDS011;47304;47.456;19.160;2023-07-13T03:50:41;8.60;;;3.40;;
61435;SDS011;47304;47.456;19.160;2023-07-13T03:53:08;12.90;;;4.20;;
61435;SDS011;47304;47.456;19.160;2023-07-13T03:55:35;10.40;;;4.20;;
61435;SDS011;47304;47.456;19.160;2023-07-13T04:00:51;9.70;;;4.40;;
61435;SDS011;47304;47.456;19.160;2023-07-13T04:03:18;8.70;;;4.10;;
61435;SDS011;47304;47.456;19.160;2023-07-13T04:05:45;8.90;;;4.30;;
61435;SDS011;47304;47.456;19.160;2023-07-13T04:08:11;10.10;;;4.50;;
61435;SDS011;47304;47.456;19.160;2023-07-13T04:10:39;11.00;;;4.70;;
61435;SDS011;47304;47.456;19.160;2023-07-13T04:13:05;10.30;;;4.60;;
61435;SDS011;47304;47.456;19.160;2023-07-13T04:15:33;10.80;;;4.50;;
61435;SDS011;47304;47.456;19.160;2023-07-13T04:18:00;11.60;;;5.20;;
61435;SDS011;47304;47.456;19.160;2023-07-13T04:20:26;11.70;;;5.10;;
61435;SDS011;47304;47.456;19.160;2023-07-13T04:22:53;8.40;;;4.60;;
61435;SDS011;47304;47.456;19.160;2023-07-13T04:25:20;10.10;;;4.70;;
61435;SDS011;47304;47.456;19.160;2023-07-13T04:27:47;11.80;;;5.00;;
61435;SDS011;47304;47.456;19.160;2023-07-13T04:30:14;12.30;;;5.10;;
61435;SDS011;47304;47.456;19.160;2023-07-13T04:32:40;9.60;;;4.70;;
61435;SDS011;47304;47.456;19.160;2023-07-13T04:35:07;12.00;;;5.20;;
61435;SDS011;47304;47.456;19.160;2023-07-13T04:37:34;12.60;;;5.10;;
61435;SDS011;47304;47.456;19.160;2023-07-13T04:40:01;9.20;;;4.10;;
61435;SDS011;47304;47.456;19.160;2023-07-13T04:42:27;11.40;;;4.40;;
61435;SDS011;47304;47.456;19.160;2023-07-13T04:44:54;13.10;;;5.00;;
61435;SDS011;47304;47.456;19.160;2023-07-13T04:47:21;12.40;;;4.90;;
61435;SDS011;47304;47.456;19.160;2023-07-13T04:49:47;11.60;;;4.80;;
61435;SDS011;47304;47.456;19.160;2023-07-13T04:52:14;9.40;;;4.60;;
61435;SDS011;47304;47.456;19.160;2023-07-13T04:54:40;11.00;;;4.60;;
61435;SDS011;47304;47.456;19.160;2023-07-13T04:57:07;10.10;;;4.30;;
61435;SDS011;47304;47.456;19.160;2023-07-13T04:59:34;10.40;;;4.30;;
61435;SDS011;47304;47.456;19.160;2023-07-13T05:02:01;9.20;;;4.30;;
61435;SDS011;47304;47.456;19.160;2023-07-13T05:04:28;12.00;;;4.30;;
61435;SDS011;47304;47.456;19.160;2023-07-13T05:06:54;11.50;;;4.00;;
61435;SDS011;47304;47.456;19.160;2023-07-13T05:09:21;13.40;;;4.50;;
61435;SDS011;47304;47.456;19.160;2023-07-13T05:11:48;9.40;;;4.30;;
61435;SDS011;47304;47.456;19.160;2023-07-13T05:14:14;11.70;;;4.70;;
61435;SDS011;47304;47.456;19.160;2023-07-13T05:16:41;11.00;;;4.50;;
61435;SDS011;47304;47.456;19.160;2023-07-13T05:19:08;10.90;;;4.50;;
61435;SDS011;47304;47.456;19.160;2023-07-13T05:21:34;9.50;;;3.50;;
61435;SDS011;47304;47.456;19.160;2023-07-13T05:24:01;12.30;;;3.80;;
61435;SDS011;47304;47.456;19.160;2023-07-13T05:26:44;6.70;;;3.20;;
61435;SDS011;47304;47.456;19.160;2023-07-13T05:29:11;7.70;;;2.90;;
61435;SDS011;47304;47.456;19.160;2023-07-13T05:31:37;8.80;;;3.30;;
61435;SDS011;47304;47.456;19.160;2023-07-13T05:34:06;7.40;;;3.00;;
61435;SDS011;47304;47.456;19.160;2023-07-13T05:36:33;7.90;;;2.90;;
61435;SDS011;47304;47.456;19.160;2023-07-13T05:39:00;8.80;;;3.60;;
61435;SDS011;47304;47.456;19.160;2023-07-13T05:41:26;7.30;;;2.90;;
61435;SDS011;47304;47.456;19.160;2023-07-13T05:43:53;9.40;;;3.40;;
61435;SDS011;47304;47.456;19.160;2023-07-13T05:46:19;6.20;;;3.00;;
61435;SDS011;47304;47.456;19.160;2023-07-13T05:48:46;7.70;;;3.10;;
61435;SDS011;47304;47.456;19.160;2023-07-13T05:51:13;7.80;;;2.70;;
61435;SDS011;47304;47.456;19.160;2023-07-13T05:53:39;5.30;;;2.50;;
61435;SDS011;47304;47.456;19.160;2023-07-13T05:56:06;7.00;;;2.60;;
61435;SDS011;47304;47.456;19.160;2023-07-13T05:58:33;5.90;;;2.80;;
61435;SDS011;47304;47.456;19.160;2023-07-13T06:01:03;6.00;;;2.50;;
61435;SDS011;47304;47.456;19.160;2023-07-13T06:03:32;6.40;;;2.50;;
61435;SDS011;47304;47.456;19.160;2023-07-13T06:05:59;6.30;;;2.40;;
61435;SDS011;47304;47.456;19.160;2023-07-13T06:08:26;7.60;;;2.70;;
61435;SDS011;47304;47.456;19.160;2023-07-13T06:10:53;10.10;;;2.50;;
61435;SDS011;47304;47.456;19.160;2023-07-13T06:13:20;7.00;;;2.30;;
61435;SDS011;47304;47.456;19.160;2023-07-13T06:15:49;7.00;;;2.30;;
61435;SDS011;47304;47.456;19.160;2023-07-13T06:18:16;6.80;;;2.50;;
61435;SDS011;47304;47.456;19.160;2023-07-13T06:20:43;6.40;;;2.60;;
61435;SDS011;47304;47.456;19.160;2023-07-13T06:23:09;6.20;;;2.60;;
61435;SDS011;47304;47.456;19.160;2023-07-13T06:25:36;10.90;;;2.70;;
61435;SDS011;47304;47.456;19.160;2023-07-13T06:28:03;6.00;;;2.70;;
61435;SDS011;47304;47.456;19.160;2023-07-13T06:30:29;6.70;;;2.70;;
61435;SDS011;47304;47.456;19.160;2023-07-13T07:21:18;7.10;;;2.50;;
61435;SDS011;47304;47.456;19.160;2023-07-13T07:23:45;6.10;;;2.60;;
61435;SDS011;47304;47.456;19.160;2023-07-13T07:26:12;5.80;;;2.10;;
61435;SDS011;47304;47.456;19.160;2023-07-13T07:28:38;6.10;;;2.50;;
61435;SDS011;47304;47.456;19.160;2023-07-13T07:31:09;4.90;;;2.00;;
61435;SDS011;47304;47.456;19.160;2023-07-13T07:33:39;5.10;;;2.00;;
61435;SDS011;47304;47.456;19.160;2023-07-13T07:36:06;7.30;;;2.70;;
61435;SDS011;47304;47.456;19.160;2023-07-13T07:38:35;6.90;;;2.70;;
61435;SDS011;47304;47.456;19.160;2023-07-13T07:41:04;7.60;;;3.10;;
61435;SDS011;47304;47.456;19.160;2023-07-13T07:43:34;6.90;;;4.20;;
61435;SDS011;47304;47.456;19.160;2023-07-13T07:46:01;6.30;;;2.50;;
61435;SDS011;47304;47.456;19.160;2023-07-13T07:48:29;6.10;;;2.40;;
61435;SDS011;47304;47.456;19.160;2023-07-13T07:50:56;6.00;;;2.50;;
61435;SDS011;47304;47.456;19.160;2023-07-13T07:53:22;6.90;;;2.80;;
61435;SDS011;47304;47.456;19.160;2023-07-13T07:55:49;7.80;;;3.00;;
61435;SDS011;47304;47.456;19.160;2023-07-13T07:58:18;6.30;;;2.70;;
61435;SDS011;47304;47.456;19.160;2023-07-13T08:00:48;8.00;;;3.30;;
61435;SDS011;47304;47.456;19.160;2023-07-13T08:03:17;6.60;;;2.40;;
61435;SDS011;47304;47.456;19.160;2023-07-13T08:05:47;5.90;;;2.60;;
61435;SDS011;47304;47.456;19.160;2023-07-13T08:08:34;8.80;;;3.00;;
61435;SDS011;47304;47.456;19.160;2023-07-13T08:11:07;7.50;;;2.90;;
61435;SDS011;47304;47.456;19.160;2023-07-13T08:13:37;6.90;;;3.00;;
61435;SDS011;47304;47.456;19.160;2023-07-13T08:16:04;5.90;;;2.40;;
61435;SDS011;47304;47.456;19.160;2023-07-13T08:18:32;6.30;;;2.90;;
61435;SDS011;47304;47.456;19.160;2023-07-13T08:21:02;5.90;;;2.50;;
61435;SDS011;47304;47.456;19.160;2023-07-13T08:23:33;5.30;;;2.30;;
61435;SDS011;47304;47.456;19.160;2023-07-13T08:26:01;8.80;;;2.90;;
61435;SDS011;47304;47.456;19.160;2023-07-13T08:28:28;6.20;;;2.40;;
61435;SDS011;47304;47.456;19.160;2023-07-13T08:30:55;5.90;;;2.70;;
61435;SDS011;47304;47.456;19.160;2023-07-13T08:33:26;7.60;;;3.40;;
61435;SDS011;47304;47.456;19.160;2023-07-13T08:35:53;7.50;;;3.10;;
61435;SDS011;47304;47.456;19.160;2023-07-13T08:38:19;6.90;;;2.90;;
61435;SDS011;47304;47.456;19.160;2023-07-13T08:40:51;6.30;;;2.80;;
61435;SDS011;47304;47.456;19.160;2023-07-13T08:43:20;6.70;;;2.80;;
61435;SDS011;47304;47.456;19.160;2023-07-13T08:45:57;7.90;;;2.80;;
61435;SDS011;47304;47.456;19.160;2023-07-13T08:48:43;7.80;;;3.00;;
61435;SDS011;47304;47.456;19.160;2023-07-13T08:54:05;6.90;;;3.00;;
61435;SDS011;47304;47.456;19.160;2023-07-13T08:56:38;6.90;;;3.10;;
61435;SDS011;47304;47.456;19.160;2023-07-13T08:59:09;8.10;;;3.00;;
61435;SDS011;47304;47.456;19.160;2023-07-13T09:04:34;7.70;;;3.00;;
61435;SDS011;47304;47.456;19.160;2023-07-13T09:12:46;5.90;;;2.60;;
61435;SDS011;47304;47.456;19.160;2023-07-13T09:23:01;6.80;;;3.00;;
61435;SDS011;47304;47.456;19.160;2023-07-13T09:25:33;5.90;;;2.90;;
61435;SDS011;47304;47.456;19.160;2023-07-13T09:28:20;9.30;;;3.40;;
61435;SDS011;47304;47.456;19.160;2023-07-13T09:31:11;7.80;;;3.00;;
61435;SDS011;47304;47.456;19.160;2023-07-13T09:33:41;6.10;;;3.00;;
61435;SDS011;47304;47.456;19.160;2023-07-13T09:36:16;5.90;;;3.00;;
61435;SDS011;47304;47.456;19.160;2023-07-13T09:38:49;7.80;;;2.70;;
61435;SDS011;47304;47.456;19.160;2023-07-13T09:44:10;7.20;;;3.00;;
61435;SDS011;47304;47.456;19.160;2023-07-13T09:46:44;7.40;;;2.90;;
61435;SDS011;47304;47.456;19.160;2023-07-13T09:49:15;7.80;;;3.00;;
61435;SDS011;47304;47.456;19.160;2023-07-13T09:51:42;8.00;;;2.80;;
61435;SDS011;47304;47.456;19.160;2023-07-13T09:54:17;6.40;;;2.80;;
61435;SDS011;47304;47.456;19.160;2023-07-13T09:56:47;6.80;;;3.10;;
61435;SDS011;47304;47.456;19.160;2023-07-13T09:59:20;7.00;;;3.30;;
61435;SDS011;47304;47.456;19.160;2023-07-13T10:01:48;6.60;;;3.10;;
61435;SDS011;47304;47.456;19.160;2023-07-13T10:04:17;6.30;;;3.10;;
61435;SDS011;47304;47.456;19.160;2023-07-13T10:06:45;7.50;;;3.50;;
61435;SDS011;47304;47.456;19.160;2023-07-13T10:09:16;8.20;;;3.10;;
61435;SDS011;47304;47.456;19.160;2023-07-13T10:11:43;7.40;;;3.10;;
61435;SDS011;47304;47.456;19.160;2023-07-13T10:14:17;6.20;;;2.80;;
61435;SDS011;47304;47.456;19.160;2023-07-13T10:16:46;7.50;;;3.10;;
61435;SDS011;47304;47.456;19.160;2023-07-13T10:19:24;7.60;;;3.60;;
61435;SDS011;47304;47.456;19.160;2023-07-13T10:24:25;7.90;;;3.10;;
61435;SDS011;47304;47.456;19.160;2023-07-13T10:27:01;8.30;;;3.20;;
61435;SDS011;47304;47.456;19.160;2023-07-13T10:29:48;7.40;;;3.00;;
61435;SDS011;47304;47.456;19.160;2023-07-13T10:32:35;6.90;;;3.30;;
61435;SDS011;47304;47.456;19.160;2023-07-13T10:35:02;6.20;;;3.00;;
61435;SDS011;47304;47.456;19.160;2023-07-13T10:37:31;6.50;;;3.30;;
61435;SDS011;47304;47.456;19.160;2023-07-13T10:40:12;6.30;;;2.80;;
61435;SDS011;47304;47.456;19.160;2023-07-13T10:42:44;7.70;;;2.90;;
61435;SDS011;47304;47.456;19.160;2023-07-13T10:45:18;7.00;;;2.90;;
61435;SDS011;47304;47.456;19.160;2023-07-13T10:47:46;7.30;;;3.20;;
61435;SDS011;47304;47.456;19.160;2023-07-13T10:50:24;6.70;;;3.20;;
61435;SDS011;47304;47.456;19.160;2023-07-13T10:52:54;7.60;;;2.90;;
61435;SDS011;47304;47.456;19.160;2023-07-13T10:55:30;8.00;;;3.20;;
61435;SDS011;47304;47.456;19.160;2023-07-13T11:01:11;7.30;;;2.90;;
61435;SDS011;47304;47.456;19.160;2023-07-13T11:06:11;6.80;;;3.10;;
61435;SDS011;47304;47.456;19.160;2023-07-13T11:08:59;7.00;;;2.90;;
61435;SDS011;47304;47.456;19.160;2023-07-13T11:11:44;6.60;;;2.90;;
61435;SDS011;47304;47.456;19.160;2023-07-13T11:17:04;5.50;;;2.60;;
61435;SDS011;47304;47.456;19.160;2023-07-13T11:25:39;7.40;;;2.50;;
61435;SDS011;47304;47.456;19.160;2023-07-13T11:38:24;6.00;;;2.50;;
61435;SDS011;47304;47.456;19.160;2023-07-13T11:40:54;5.90;;;2.20;;
61435;SDS011;47304;47.456;19.160;2023-07-13T11:43:22;6.60;;;2.60;;
61435;SDS011;47304;47.456;19.160;2023-07-13T11:45:50;5.10;;;2.50;;
61435;SDS011;47304;47.456;19.160;2023-07-13T11:48:21;5.20;;;2.30;;
61435;SDS011;47304;47.456;19.160;2023-07-13T11:50:55;4.70;;;2.40;;
61435;SDS011;47304;47.456;19.160;2023-07-13T11:53:23;4.80;;;2.20;;
61435;SDS011;47304;47.456;19.160;2023-07-13T11:55:53;6.00;;;2.40;;
61435;SDS011;47304;47.456;19.160;2023-07-13T11:58:21;4.30;;;2.10;;
61435;SDS011;47304;47.456;19.160;2023-07-13T12:00:50;4.40;;;2.20;;
61435;SDS011;47304;47.456;19.160;2023-07-13T12:03:18;9.10;;;2.50;;
61435;SDS011;47304;47.456;19.160;2023-07-13T12:06:25;6.50;;;2.40;;
61435;SDS011;47304;47.456;19.160;2023-07-13T12:08:49;5.00;;;2.40;;
61435;SDS011;47304;47.456;19.160;2023-07-13T12:11:16;4.60;;;2.30;;
61435;SDS011;47304;47.456;19.160;2023-07-13T12:13:44;4.50;;;2.30;;
61435;SDS011;47304;47.456;19.160;2023-07-13T12:16:14;5.70;;;2.20;;
61435;SDS011;47304;47.456;19.160;2023-07-13T12:18:43;5.90;;;2.40;;
61435;SDS011;47304;47.456;19.160;2023-07-13T12:21:12;6.20;;;2.40;;
61435;SDS011;47304;47.456;19.160;2023-07-13T12:23:39;5.40;;;2.60;;
61435;SDS011;47304;47.456;19.160;2023-07-13T12:26:09;5.30;;;2.40;;
61435;SDS011;47304;47.456;19.160;2023-07-13T12:28:46;5.40;;;2.40;;
61435;SDS011;47304;47.456;19.160;2023-07-13T12:34:01;5.50;;;2.40;;
61435;SDS011;47304;47.456;19.160;2023-07-13T12:36:36;7.60;;;2.60;;
61435;SDS011;47304;47.456;19.160;2023-07-13T12:39:13;5.40;;;2.30;;
61435;SDS011;47304;47.456;19.160;2023-07-13T12:41:52;5.60;;;2.30;;
61435;SDS011;47304;47.456;19.160;2023-07-13T12:44:29;6.40;;;2.20;;
61435;SDS011;47304;47.456;19.160;2023-07-13T12:46:58;4.70;;;2.40;;
61435;SDS011;47304;47.456;19.160;2023-07-13T12:49:31;6.50;;;2.50;;
61435;SDS011;47304;47.456;19.160;2023-07-13T12:51:59;5.30;;;2.60;;
61435;SDS011;47304;47.456;19.160;2023-07-13T12:54:30;7.20;;;2.90;;
61435;SDS011;47304;47.456;19.160;2023-07-13T12:56:58;5.70;;;2.90;;
61435;SDS011;47304;47.456;19.160;2023-07-13T12:59:28;6.10;;;2.80;;
61435;SDS011;47304;47.456;19.160;2023-07-13T13:01:57;5.50;;;2.50;;
61435;SDS011;47304;47.456;19.160;2023-07-13T13:04:25;7.30;;;2.80;;
61435;SDS011;47304;47.456;19.160;2023-07-13T13:07:10;6.90;;;2.60;;
61435;SDS011;47304;47.456;19.160;2023-07-13T13:09:39;5.20;;;2.70;;
61435;SDS011;47304;47.456;19.160;2023-07-13T13:12:06;5.40;;;2.40;;
61435;SDS011;47304;47.456;19.160;2023-07-13T13:14:33;6.30;;;2.70;;
61435;SDS011;47304;47.456;19.160;2023-07-13T13:17:00;6.20;;;2.80;;
61435;SDS011;47304;47.456;19.160;2023-07-13T13:19:28;5.70;;;3.00;;
61435;SDS011;47304;47.456;19.160;2023-07-13T13:21:55;6.30;;;2.80;;
61435;SDS011;47304;47.456;19.160;2023-07-13T13:24:23;6.40;;;2.60;;
61435;SDS011;47304;47.456;19.160;2023-07-13T13:26:52;7.30;;;2.50;;
61435;SDS011;47304;47.456;19.160;2023-07-13T13:29:21;6.70;;;2.50;;
61435;SDS011;47304;47.456;19.160;2023-07-13T13:31:48;6.10;;;2.70;;
61435;SDS011;47304;47.456;19.160;2023-07-13T13:34:16;5.70;;;2.30;;
61435;SDS011;47304;47.456;19.160;2023-07-13T13:36:44;6.10;;;2.70;;
61435;SDS011;47304;47.456;19.160;2023-07-13T13:39:21;6.40;;;2.80;;
61435;SDS011;47304;47.456;19.160;2023-07-13T13:41:54;5.90;;;2.60;;
61435;SDS011;47304;47.456;19.160;2023-07-13T13:44:21;5.60;;;2.70;;
61435;SDS011;47304;47.456;19.160;2023-07-13T13:46:49;5.60;;;2.70;;
61435;SDS011;47304;47.456;19.160;2023-07-13T13:49:22;4.70;;;2.20;;
61435;SDS011;47304;47.456;19.160;2023-07-13T13:51:51;6.60;;;2.80;;
61435;SDS011;47304;47.456;19.160;2023-07-13T13:54:19;6.60;;;3.30;;
61435;SDS011;47304;47.456;19.160;2023-07-13T13:56:48;4.90;;;2.40;;
61435;SDS011;47304;47.456;19.160;2023-07-13T13:59:16;5.70;;;2.50;;
61435;SDS011;47304;47.456;19.160;2023-07-13T14:01:44;7.10;;;2.60;;
61435;SDS011;47304;47.456;19.160;2023-07-13T14:04:17;5.90;;;2.70;;
61435;SDS011;47304;47.456;19.160;2023-07-13T14:06:45;5.30;;;2.50;;
61435;SDS011;47304;47.456;19.160;2023-07-13T14:09:13;6.00;;;2.30;;
61435;SDS011;47304;47.456;19.160;2023-07-13T14:11:42;6.60;;;2.90;;
61435;SDS011;47304;47.456;19.160;2023-07-13T14:14:12;5.80;;;2.50;;
61435;SDS011;47304;47.456;19.160;2023-07-13T14:16:42;6.00;;;2.90;;
61435;SDS011;47304;47.456;19.160;2023-07-13T14:19:12;6.80;;;2.70;;
61435;SDS011;47304;47.456;19.160;2023-07-13T14:21:40;5.60;;;2.70;;
61435;SDS011;47304;47.456;19.160;2023-07-13T14:24:07;5.90;;;2.90;;
61435;SDS011;47304;47.456;19.160;2023-07-13T14:26:36;6.00;;;2.90;;
61435;SDS011;47304;47.456;19.160;2023-07-13T14:29:05;8.00;;;2.60;;
61435;SDS011;47304;47.456;19.160;2023-07-13T14:31:37;5.40;;;2.60;;
61435;SDS011;47304;47.456;19.160;2023-07-13T14:34:04;7.20;;;2.80;;
61435;SDS011;47304;47.456;19.160;2023-07-13T14:36:32;5.60;;;2.60;;
61435;SDS011;47304;47.456;19.160;2023-07-13T14:46:56;6.90;;;2.90;;
61435;SDS011;47304;47.456;19.160;2023-07-13T14:49:28;6.00;;;2.90;;
61435;SDS011;47304;47.456;19.160;2023-07-13T14:52:13;5.90;;;2.80;;
61435;SDS011;47304;47.456;19.160;2023-07-13T14:54:41;5.70;;;2.60;;
61435;SDS011;47304;47.456;19.160;2023-07-13T14:57:12;7.60;;;3.00;;
61435;SDS011;47304;47.456;19.160;2023-07-13T14:59:40;5.70;;;2.80;;
61435;SDS011;47304;47.456;19.160;2023-07-13T15:02:14;6.70;;;2.90;;
61435;SDS011;47304;47.456;19.160;2023-07-13T15:04:56;5.60;;;2.80;;
61435;SDS011;47304;47.456;19.160;2023-07-13T15:07:26;5.10;;;2.30;;
61435;SDS011;47304;47.456;19.160;2023-07-13T15:10:00;6.00;;;2.80;;
61435;SDS011;47304;47.456;19.160;2023-07-13T15:12:29;5.90;;;2.70;;
61435;SDS011;47304;47.456;19.160;2023-07-13T15:14:56;6.70;;;3.10;;
61435;SDS011;47304;47.456;19.160;2023-07-13T15:17:41;7.00;;;2.80;;
61435;SDS011;47304;47.456;19.160;2023-07-13T15:20:15;6.80;;;3.00;;
61435;SDS011;47304;47.456;19.160;2023-07-13T15:22:59;8.10;;;3.00;;
61435;SDS011;47304;47.456;19.160;2023-07-13T15:25:27;5.90;;;2.70;;
61435;SDS011;47304;47.456;19.160;2023-07-13T15:27:56;7.00;;;3.00;;
61435;SDS011;47304;47.456;19.160;2023-07-13T15:30:30;7.00;;;3.10;;
61435;SDS011;47304;47.456;19.160;2023-07-13T15:33:05;5.90;;;2.70;;
61435;SDS011;47304;47.456;19.160;2023-07-13T15:36:16;5.50;;;2.50;;
61435;SDS011;47304;47.456;19.160;2023-07-13T15:38:44;6.10;;;2.70;;
61435;SDS011;47304;47.456;19.160;2023-07-13T15:41:18;6.40;;;2.90;;
61435;SDS011;47304;47.456;19.160;2023-07-13T15:43:53;6.30;;;2.80;;
61435;SDS011;47304;47.456;19.160;2023-07-13T15:46:22;6.20;;;2.90;;
61435;SDS011;47304;47.456;19.160;2023-07-13T15:48:51;6.50;;;3.10;;
61435;SDS011;47304;47.456;19.160;2023-07-13T15:51:20;6.10;;;2.80;;
61435;SDS011;47304;47.456;19.160;2023-07-13T15:53:54;6.40;;;2.90;;
61435;SDS011;47304;47.456;19.160;2023-07-13T15:56:26;6.50;;;3.00;;
61435;SDS011;47304;47.456;19.160;2023-07-13T15:58:55;7.50;;;2.90;;
61435;SDS011;47304;47.456;19.160;2023-07-13T16:01:23;6.30;;;3.10;;
61435;SDS011;47304;47.456;19.160;2023-07-13T16:03:51;7.20;;;3.70;;
61435;SDS011;47304;47.456;19.160;2023-07-13T16:06:23;8.30;;;3.00;;
61435;SDS011;47304;47.456;19.160;2023-07-13T16:08:58;6.20;;;3.00;;
61435;SDS011;47304;47.456;19.160;2023-07-13T16:11:29;6.70;;;2.90;;
61435;SDS011;47304;47.456;19.160;2023-07-13T16:14:00;5.90;;;2.70;;
61435;SDS011;47304;47.456;19.160;2023-07-13T16:16:29;6.60;;;3.00;;
61435;SDS011;47304;47.456;19.160;2023-07-13T16:18:57;7.40;;;3.00;;
61435;SDS011;47304;47.456;19.160;2023-07-13T16:21:27;5.80;;;2.80;;
61435;SDS011;47304;47.456;19.160;2023-07-13T16:23:55;5.60;;;2.70;;
61435;SDS011;47304;47.456;19.160;2023-07-13T16:26:31;12.60;;;3.20;;
61435;SDS011;47304;47.456;19.160;2023-07-13T16:29:03;8.60;;;2.90;;
61435;SDS011;47304;47.456;19.160;2023-07-13T16:31:30;8.90;;;3.30;;
61435;SDS011;47304;47.456;19.160;2023-07-13T16:33:59;22.00;;;3.30;;
61435;SDS011;47304;47.456;19.160;2023-07-13T16:36:27;8.00;;;2.90;;
61435;SDS011;47304;47.456;19.160;2023-07-13T16:38:55;5.70;;;2.50;;
61435;SDS011;47304;47.456;19.160;2023-07-13T16:41:22;6.10;;;2.80;;
61435;SDS011;47304;47.456;19.160;2023-07-13T16:43:48;5.60;;;2.60;;
61435;SDS011;47304;47.456;19.160;2023-07-13T16:46:18;5.60;;;2.70;;
61435;SDS011;47304;47.456;19.160;2023-07-13T16:48:48;5.90;;;2.60;;
61435;SDS011;47304;47.456;19.160;2023-07-13T16:51:16;6.90;;;3.00;;
61435;SDS011;47304;47.456;19.160;2023-07-13T16:53:43;6.70;;;3.00;;
61435;SDS011;47304;47.456;19.160;2023-07-13T16:56:19;5.90;;;2.70;;
61435;SDS011;47304;47.456;19.160;2023-07-13T16:58:46;5.50;;;2.60;;
61435;SDS011;47304;47.456;19.160;2023-07-13T17:01:13;6.90;;;3.30;;
61435;SDS011;47304;47.456;19.160;2023-07-13T17:03:40;13.40;;;7.70;;
61435;SDS011;47304;47.456;19.160;2023-07-13T17:06:19;7.80;;;3.20;;
61435;SDS011;47304;47.456;19.160;2023-07-13T17:08:49;6.60;;;2.90;;
61435;SDS011;47304;47.456;19.160;2023-07-13T17:11:19;7.20;;;3.10;;
61435;SDS011;47304;47.456;19.160;2023-07-13T17:13:46;6.80;;;3.50;;
61435;SDS011;47304;47.456;19.160;2023-07-13T17:16:13;7.40;;;3.20;;
61435;SDS011;47304;47.456;19.160;2023-07-13T17:18:40;7.10;;;2.90;;
61435;SDS011;47304;47.456;19.160;2023-07-13T17:21:10;7.20;;;2.70;;
61435;SDS011;47304;47.456;19.160;2023-07-13T17:23:42;7.70;;;3.00;;
61435;SDS011;47304;47.456;19.160;2023-07-13T17:26:09;6.50;;;3.40;;
61435;SDS011;47304;47.456;19.160;2023-07-13T17:28:37;6.80;;;3.10;;
61435;SDS011;47304;47.456;19.160;2023-07-13T17:31:04;7.00;;;3.20;;
61435;SDS011;47304;47.456;19.160;2023-07-13T17:33:33;6.10;;;3.00;;
61435;SDS011;47304;47.456;19.160;2023-07-13T17:36:02;6.60;;;2.70;;